Time;durP1;ratioP1;P1;durP2;ratioP2;P2;SDS_P1;SDS_P2;PMS_P1;PMS_P2;Temp;Humidity;BMP_temperature;BMP_pressure;BME280_temperature;BME280_humidity;BME280_pressure;Samples;Min_cycle;Max_cycle;Signal;HPM_P1;HPM_P2
2022/09/18 00:07:04;;;;;;;5.15;0.70;;;16.10;87.90;;;;;;5098087;22;20048;-65
2022/09/18 00:09:30;;;;;;;3.25;1.05;;;16.10;87.90;;;;;;5081388;28;20037;-66
2022/09/18 00:11:56;;;;;;;0.80;0.68;;;16.10;87.90;;;;;;5066076;28;20035;-64
2022/09/18 00:14:22;;;;;;;0.60;0.60;;;16.10;87.90;;;;;;5056476;28;20052;-65
2022/09/18 00:16:49;;;;;;;2.22;0.55;;;16.10;87.80;;;;;;5063736;28;20024;-65
2022/09/18 00:19:15;;;;;;;0.63;0.50;;;16.10;87.80;;;;;;5059994;28;20086;-66
2022/09/18 00:21:43;;;;;;;2.03;0.70;;;16.10;87.90;;;;;;5071473;28;20020;-65
2022/09/18 00:24:10;;;;;;;3.85;0.80;;;16.10;87.90;;;;;;5075684;28;20021;-66
2022/09/18 00:26:36;;;;;;;1.40;0.85;;;16.10;87.90;;;;;;5061904;28;20033;-66
2022/09/18 00:29:03;;;;;;;8.07;1.23;;;16.10;87.90;;;;;;5068756;28;20057;-65
2022/09/18 00:31:31;;;;;;;2.35;0.77;;;16.10;87.90;;;;;;5062582;28;20079;-66
2022/09/18 00:33:59;;;;;;;1.20;0.60;;;16.10;87.80;;;;;;5065020;28;20482;-65
2022/09/18 00:36:25;;;;;;;2.63;0.50;;;16.10;87.90;;;;;;5060008;28;20028;-65
2022/09/18 00:38:52;;;;;;;1.40;0.70;;;16.10;87.80;;;;;;5065908;28;20020;-65
2022/09/18 00:41:23;;;;;;;0.93;0.70;;;16.10;87.80;;;;;;5064026;28;20056;-65
2022/09/18 00:43:52;;;;;;;1.02;0.60;;;16.10;87.90;;;;;;5065487;28;20031;-65
2022/09/18 00:46:26;;;;;;;1.75;0.85;;;16.00;87.80;;;;;;5057386;28;20033;-65
2022/09/18 00:49:18;;;;;;;2.75;0.80;;;16.10;87.90;;;;;;5061745;28;20025;-65
2022/09/18 00:51:46;;;;;;;3.58;0.68;;;16.00;87.80;;;;;;5060621;28;20124;-65
2022/09/18 00:54:22;;;;;;;1.90;0.80;;;16.00;87.80;;;;;;5062006;28;20026;-65
2022/09/18 00:56:51;;;;;;;3.03;1.05;;;16.00;87.80;;;;;;5067570;28;20021;-65
2022/09/18 00:59:25;;;;;;;2.10;0.70;;;16.00;87.80;;;;;;5060232;28;20494;-66
2022/09/18 01:01:51;;;;;;;2.50;0.52;;;16.00;87.80;;;;;;5071324;28;20020;-65
2022/09/18 01:04:17;;;;;;;5.38;0.85;;;16.00;87.80;;;;;;5062539;28;20024;-65
2022/09/18 01:07:10;;;;;;;1.88;0.63;;;16.00;87.80;;;;;;5062591;28;20513;-65
2022/09/18 01:09:57;;;;;;;2.22;0.63;;;16.00;87.80;;;;;;5062714;28;20060;-65
2022/09/18 01:12:51;;;;;;;3.22;0.70;;;16.00;87.90;;;;;;5067302;28;20048;-65
2022/09/18 01:15:42;;;;;;;3.67;1.10;;;16.00;87.80;;;;;;5051989;28;20025;-66
2022/09/18 01:18:45;;;;;;;4.07;1.20;;;16.00;87.80;;;;;;5081028;28;20386;-67
2022/09/18 01:21:37;;;;;;;2.10;0.70;;;16.10;87.90;;;;;;5082254;28;20059;-65
2022/09/18 01:24:33;;;;;;;1.27;0.60;;;16.00;87.80;;;;;;5059133;28;20025;-66
2022/09/18 01:27:05;;;;;;;0.90;0.70;;;16.00;87.80;;;;;;5055930;28;20461;-65
2022/09/18 01:29:34;;;;;;;2.28;1.00;;;16.00;87.80;;;;;;5064703;28;20082;-65
2022/09/18 01:32:02;;;;;;;4.13;1.13;;;16.00;87.90;;;;;;5060721;28;20482;-66
2022/09/18 01:34:45;;;;;;;1.65;0.88;;;16.00;87.90;;;;;;5060127;28;20104;-65
2022/09/18 01:37:34;;;;;;;4.60;0.90;;;16.00;87.80;;;;;;5060375;28;20099;-66
2022/09/18 01:40:17;;;;;;;1.30;0.80;;;16.00;87.80;;;;;;5059733;28;20028;-65
2022/09/18 01:42:46;;;;;;;1.10;0.60;;;16.00;87.80;;;;;;5068660;28;20047;-65
2022/09/18 01:45:16;;;;;;;1.33;0.65;;;16.00;87.80;;;;;;5079218;28;20123;-65
2022/09/18 01:47:54;;;;;;;3.88;0.73;;;16.00;87.80;;;;;;5062350;28;20031;-64
2022/09/18 01:50:21;;;;;;;2.83;0.70;;;16.00;87.90;;;;;;5065408;28;20051;-65
2022/09/18 01:53:14;;;;;;;2.88;0.88;;;16.00;87.90;;;;;;5063873;28;20491;-65
2022/09/18 01:55:44;;;;;;;3.22;0.82;;;16.00;87.90;;;;;;5063741;28;20474;-64
2022/09/18 01:58:19;;;;;;;1.35;0.80;;;16.00;87.90;;;;;;5074450;28;20494;-65
2022/09/18 02:00:53;;;;;;;1.92;0.70;;;16.00;87.90;;;;;;5060165;28;20036;-65
2022/09/18 02:03:24;;;;;;;5.68;0.82;;;16.00;87.90;;;;;;5051773;28;20075;-65
2022/09/18 02:06:00;;;;;;;6.43;0.80;;;16.00;87.90;;;;;;5075375;28;20616;-67
2022/09/18 02:08:42;;;;;;;4.60;1.33;;;16.00;87.90;;;;;;5067189;28;20058;-65
2022/09/18 02:11:11;;;;;;;6.75;0.80;;;16.00;87.90;;;;;;5064439;28;20021;-67
2022/09/18 02:13:41;;;;;;;1.92;0.70;;;16.00;87.90;;;;;;5056263;28;20459;-66
2022/09/18 02:16:23;;;;;;;2.40;0.88;;;16.00;87.90;;;;;;5063003;28;20081;-64
2022/09/18 02:18:54;;;;;;;1.23;0.70;;;16.00;87.90;;;;;;5055311;28;20040;-65
2022/09/18 02:21:27;;;;;;;2.72;0.70;;;16.00;87.90;;;;;;5065164;28;20075;-65
2022/09/18 02:24:01;;;;;;;4.97;0.82;;;16.00;87.80;;;;;;5068168;28;20031;-65
2022/09/18 02:26:28;;;;;;;1.52;0.60;;;16.00;87.80;;;;;;5062573;28;20036;-64
2022/09/18 02:28:55;;;;;;;2.88;0.75;;;16.00;87.90;;;;;;5060803;28;20505;-65
2022/09/18 02:31:21;;;;;;;2.95;0.70;;;16.00;87.90;;;;;;5059699;28;20083;-65
2022/09/18 02:33:47;;;;;;;2.65;0.77;;;16.00;87.90;;;;;;5061402;28;20024;-65
2022/09/18 02:36:28;;;;;;;2.15;0.60;;;16.00;87.90;;;;;;5061092;28;20033;-65
2022/09/18 02:39:13;;;;;;;6.60;0.88;;;16.00;87.80;;;;;;5061606;28;20104;-65
2022/09/18 02:41:59;;;;;;;3.65;0.82;;;16.00;87.80;;;;;;5059652;28;20462;-65
2022/09/18 02:44:41;;;;;;;1.65;0.75;;;16.00;87.80;;;;;;5060834;28;20025;-65
2022/09/18 02:47:16;;;;;;;2.40;0.63;;;16.00;87.80;;;;;;5062444;28;20028;-65
2022/09/18 02:50:06;;;;;;;4.00;0.70;;;16.00;87.80;;;;;;5063324;28;20351;-65
2022/09/18 02:52:44;;;;;;;3.05;0.60;;;16.00;87.80;;;;;;5065910;28;20029;-66
2022/09/18 02:55:27;;;;;;;0.93;0.60;;;16.00;87.80;;;;;;5061814;28;20046;-66
2022/09/18 02:58:00;;;;;;;3.03;0.77;;;16.00;87.80;;;;;;5061124;28;20025;-65
2022/09/18 03:00:30;;;;;;;5.45;0.80;;;16.00;87.80;;;;;;5053318;28;20024;-66
2022/09/18 03:02:57;;;;;;;2.80;1.13;;;16.00;87.90;;;;;;5054407;28;20032;-66
2022/09/18 03:05:24;;;;;;;2.67;0.88;;;16.00;87.80;;;;;;5061446;28;20040;-65
2022/09/18 03:07:50;;;;;;;2.47;0.77;;;16.00;87.80;;;;;;5065159;28;20052;-65
2022/09/18 03:10:15;;;;;;;0.70;0.60;;;16.00;87.80;;;;;;5078693;28;20036;-65
2022/09/18 03:12:41;;;;;;;4.35;1.08;;;16.00;87.80;;;;;;5055135;28;20474;-65
2022/09/18 03:15:07;;;;;;;1.85;0.68;;;16.00;87.90;;;;;;5062073;28;20051;-65
2022/09/18 03:17:33;;;;;;;4.55;0.82;;;16.00;87.80;;;;;;5061870;28;20102;-65
2022/09/18 03:19:58;;;;;;;2.38;0.90;;;16.00;87.80;;;;;;5055240;28;20083;-65
2022/09/18 03:22:24;;;;;;;4.10;0.80;;;16.00;87.80;;;;;;5065452;28;20543;-65
2022/09/18 03:24:50;;;;;;;4.00;0.82;;;16.00;87.80;;;;;;5072278;28;20029;-66
2022/09/18 03:27:19;;;;;;;2.67;0.70;;;16.00;87.80;;;;;;5056890;28;20035;-65
2022/09/18 03:29:45;;;;;;;3.08;0.80;;;16.00;87.80;;;;;;5040905;28;20021;-65
2022/09/18 03:32:10;;;;;;;0.63;0.63;;;16.00;87.80;;;;;;5069950;28;20043;-66
2022/09/18 03:34:37;;;;;;;1.63;0.90;;;16.00;87.80;;;;;;5077894;28;20021;-65
2022/09/18 03:37:03;;;;;;;1.67;0.80;;;16.00;87.80;;;;;;5059713;28;20020;-65
2022/09/18 03:39:28;;;;;;;1.13;0.85;;;16.00;87.80;;;;;;5058834;28;20021;-65
2022/09/18 03:41:54;;;;;;;1.92;0.77;;;16.00;87.80;;;;;;5059163;28;20021;-64
2022/09/18 03:44:19;;;;;;;4.68;0.90;;;16.00;87.80;;;;;;5060716;28;20017;-65
2022/09/18 03:46:45;;;;;;;3.45;0.63;;;16.00;87.80;;;;;;5061180;28;20068;-66
2022/09/18 03:49:14;;;;;;;2.28;0.60;;;16.00;87.80;;;;;;5061049;28;20078;-65
2022/09/18 03:51:39;;;;;;;1.63;0.60;;;16.00;87.80;;;;;;5054114;28;20031;-66
2022/09/18 03:54:05;;;;;;;4.22;0.80;;;16.00;87.80;;;;;;5057750;28;20021;-66
2022/09/18 03:56:31;;;;;;;1.85;0.77;;;16.00;87.80;;;;;;5056717;28;20025;-65
2022/09/18 03:58:56;;;;;;;7.72;0.90;;;16.00;87.80;;;;;;5066526;28;20506;-65
2022/09/18 04:01:22;;;;;;;5.28;0.93;;;16.00;87.80;;;;;;5056374;28;20382;-66
2022/09/18 04:03:48;;;;;;;2.85;0.60;;;16.00;87.80;;;;;;5066205;28;20477;-65
2022/09/18 04:06:14;;;;;;;1.48;0.68;;;16.00;87.80;;;;;;5059450;28;20033;-65
2022/09/18 04:08:40;;;;;;;4.05;0.85;;;16.00;87.80;;;;;;5060536;28;20032;-66
2022/09/18 04:11:06;;;;;;;2.00;0.77;;;16.00;87.80;;;;;;5060177;28;20029;-65
2022/09/18 04:13:32;;;;;;;3.10;0.70;;;16.00;87.80;;;;;;5056752;28;20394;-65
2022/09/18 04:15:58;;;;;;;0.73;0.55;;;16.00;87.80;;;;;;5065115;28;20382;-66
2022/09/18 04:18:24;;;;;;;4.97;0.80;;;16.00;87.80;;;;;;5073393;28;20024;-66
2022/09/18 04:20:50;;;;;;;2.55;0.80;;;16.00;87.80;;;;;;5057458;28;20036;-65
2022/09/18 04:23:16;;;;;;;2.72;0.70;;;16.00;87.80;;;;;;5057639;28;20021;-65
2022/09/18 04:25:42;;;;;;;4.70;0.70;;;16.00;87.80;;;;;;5048939;28;20040;-65
2022/09/18 04:28:08;;;;;;;1.90;0.70;;;16.00;87.80;;;;;;5057281;28;20090;-66
2022/09/18 04:30:36;;;;;;;2.55;1.00;;;16.00;87.80;;;;;;5056782;28;20040;-65
2022/09/18 04:33:03;;;;;;;7.05;1.20;;;16.00;88.60;;;;;;5066283;28;20025;-66
2022/09/18 04:35:28;;;;;;;2.85;0.90;;;15.90;87.80;;;;;;5051465;28;20517;-66
2022/09/18 04:37:54;;;;;;;2.08;1.02;;;16.00;87.80;;;;;;5056917;28;20056;-65
2022/09/18 04:40:20;;;;;;;2.45;0.70;;;16.00;87.80;;;;;;5058134;28;20405;-66
2022/09/18 04:42:45;;;;;;;2.78;0.70;;;16.00;87.80;;;;;;5056420;28;20013;-65
2022/09/18 04:45:11;;;;;;;1.38;0.70;;;16.00;87.80;;;;;;5059704;28;20382;-65
2022/09/18 04:47:37;;;;;;;3.17;0.93;;;16.00;87.90;;;;;;5056005;28;20078;-65
2022/09/18 04:50:03;;;;;;;4.57;1.05;;;16.00;87.80;;;;;;5057952;28;20029;-65
2022/09/18 04:52:29;;;;;;;2.40;0.80;;;16.00;87.80;;;;;;5086633;28;20489;-64
2022/09/18 04:54:54;;;;;;;1.63;0.70;;;16.00;87.80;;;;;;5072367;28;20035;-65
2022/09/18 04:57:20;;;;;;;6.53;1.63;;;16.00;87.80;;;;;;5061701;28;20024;-65
2022/09/18 04:59:45;;;;;;;3.88;0.73;;;16.00;87.80;;;;;;5061835;28;20074;-66
2022/09/18 05:02:14;;;;;;;2.53;0.93;;;16.00;87.80;;;;;;5062561;28;20021;-65
2022/09/18 05:04:40;;;;;;;2.67;1.02;;;16.00;87.90;;;;;;5062330;28;20019;-65
2022/09/18 05:07:05;;;;;;;1.55;0.88;;;16.00;87.90;;;;;;5072571;28;20020;-65
2022/09/18 05:09:31;;;;;;;4.47;0.85;;;16.00;87.80;;;;;;5084467;28;20116;-65
2022/09/18 05:11:57;;;;;;;1.83;0.85;;;16.00;87.90;;;;;;5069165;28;20016;-66
2022/09/18 05:14:22;;;;;;;3.17;0.70;;;16.00;87.90;;;;;;5062347;28;20341;-64
2022/09/18 05:16:48;;;;;;;2.17;0.80;;;16.00;87.80;;;;;;5066919;28;20100;-64
2022/09/18 05:19:13;;;;;;;3.58;0.85;;;16.00;87.90;;;;;;5063295;28;20082;-65
2022/09/18 05:21:39;;;;;;;0.80;0.57;;;16.00;87.90;;;;;;5063883;28;20025;-65
2022/09/18 05:24:05;;;;;;;4.75;1.02;;;16.00;87.90;;;;;;5068038;28;20029;-65
2022/09/18 05:26:30;;;;;;;4.40;1.10;;;16.00;87.90;;;;;;5063846;28;20439;-65
2022/09/18 05:28:56;;;;;;;7.15;0.90;;;16.00;87.90;;;;;;5064507;28;20028;-66
2022/09/18 05:31:22;;;;;;;2.80;0.98;;;15.90;87.80;;;;;;5064377;28;20480;-65
2022/09/18 05:33:47;;;;;;;2.55;0.90;;;16.00;87.90;;;;;;5064715;28;20020;-65
2022/09/18 05:36:13;;;;;;;2.65;0.60;;;16.00;87.80;;;;;;5062310;28;20033;-65
2022/09/18 05:38:38;;;;;;;5.07;1.10;;;15.90;87.80;;;;;;5083873;28;20028;-64
2022/09/18 05:41:04;;;;;;;2.22;0.70;;;15.90;87.80;;;;;;5076320;28;20544;-65
2022/09/18 05:43:30;;;;;;;2.25;0.82;;;16.00;87.90;;;;;;5069446;28;20067;-65
2022/09/18 05:45:56;;;;;;;2.53;0.63;;;16.00;87.90;;;;;;5060267;28;20079;-65
2022/09/18 05:48:22;;;;;;;1.98;0.63;;;16.00;87.90;;;;;;5060202;28;20375;-65
2022/09/18 05:50:50;;;;;;;1.33;0.63;;;15.90;87.80;;;;;;5063899;28;20557;-65
2022/09/18 05:53:18;;;;;;;2.50;0.80;;;15.90;87.90;;;;;;5063116;28;20025;-65
2022/09/18 05:55:44;;;;;;;1.92;0.68;;;16.00;87.90;;;;;;5060771;28;20100;-65
2022/09/18 05:58:17;;;;;;;3.88;1.10;;;15.90;87.90;;;;;;5060002;28;20100;-66
2022/09/18 06:00:43;;;;;;;1.27;0.60;;;16.00;88.00;;;;;;5060497;28;20021;-65
2022/09/18 06:03:11;;;;;;;1.17;0.70;;;16.00;87.90;;;;;;5059562;28;20067;-66
2022/09/18 06:05:37;;;;;;;1.70;0.70;;;15.90;87.90;;;;;;5076711;28;20036;-65
2022/09/18 06:08:05;;;;;;;0.98;0.60;;;15.90;87.90;;;;;;5062772;28;20032;-65
2022/09/18 06:10:32;;;;;;;6.00;0.88;;;16.00;87.90;;;;;;5060880;28;20025;-65
2022/09/18 06:13:06;;;;;;;4.50;0.95;;;16.00;87.90;;;;;;5060269;28;20028;-65
2022/09/18 06:15:32;;;;;;;2.95;0.77;;;16.00;88.00;;;;;;5061266;28;20021;-64
2022/09/18 06:17:58;;;;;;;4.32;0.70;;;15.90;87.90;;;;;;5054714;28;20237;-66
2022/09/18 06:20:24;;;;;;;1.08;0.80;;;16.00;88.00;;;;;;5058606;28;20029;-65
2022/09/18 06:22:50;;;;;;;0.85;0.80;;;16.00;87.90;;;;;;5052010;28;20493;-65
2022/09/18 06:25:18;;;;;;;0.80;0.80;;;16.00;87.90;;;;;;5058643;28;20032;-65
2022/09/18 06:27:44;;;;;;;1.90;0.93;;;16.00;87.90;;;;;;5057927;28;20025;-65
2022/09/18 06:30:10;;;;;;;1.48;0.73;;;16.00;88.00;;;;;;5075321;28;20516;-65
2022/09/18 06:32:36;;;;;;;3.80;0.88;;;15.90;88.60;;;;;;5061600;28;20025;-65
2022/09/18 06:35:02;;;;;;;2.75;0.70;;;16.00;87.90;;;;;;5063305;28;20028;-65
2022/09/18 06:37:27;;;;;;;0.70;0.57;;;16.00;87.90;;;;;;5069402;28;20612;-66
2022/09/18 06:39:53;;;;;;;1.50;0.80;;;16.00;87.90;;;;;;5063383;28;20362;-65
2022/09/18 06:42:20;;;;;;;1.98;0.52;;;16.00;88.00;;;;;;5061930;28;20494;-65
2022/09/18 06:44:45;;;;;;;2.17;0.80;;;16.00;88.00;;;;;;5059856;28;20064;-65
2022/09/18 06:47:11;;;;;;;1.80;0.65;;;16.00;88.00;;;;;;5058594;28;20425;-65
2022/09/18 06:49:37;;;;;;;1.75;0.80;;;16.00;87.90;;;;;;5062808;28;20124;-65
2022/09/18 06:52:03;;;;;;;4.32;0.80;;;16.00;88.00;;;;;;5069524;28;20461;-66
2022/09/18 06:54:28;;;;;;;3.05;0.60;;;16.00;88.00;;;;;;5061605;28;20108;-65
2022/09/18 06:56:54;;;;;;;2.05;0.80;;;16.00;88.00;;;;;;5070240;28;20436;-65
2022/09/18 06:59:21;;;;;;;2.28;0.65;;;16.00;88.00;;;;;;5052945;28;20032;-65
2022/09/18 07:01:47;;;;;;;1.40;0.60;;;16.00;88.00;;;;;;5058025;28;20021;-65
2022/09/18 07:04:13;;;;;;;2.17;0.80;;;16.00;88.00;;;;;;5057875;28;20028;-65
2022/09/18 07:06:42;;;;;;;3.15;0.60;;;16.00;87.90;;;;;;5061427;28;20068;-65
2022/09/18 07:09:08;;;;;;;4.90;0.85;;;16.00;87.90;;;;;;5062619;28;20085;-66
2022/09/18 07:11:35;;;;;;;2.72;0.70;;;16.00;88.00;;;;;;5054168;28;20033;-64
2022/09/18 07:14:00;;;;;;;1.55;0.70;;;16.00;88.00;;;;;;5061418;28;20451;-65
2022/09/18 07:16:26;;;;;;;2.75;0.90;;;16.00;88.00;;;;;;5061850;28;20021;-65
2022/09/18 07:18:52;;;;;;;1.92;0.80;;;16.00;87.90;;;;;;5062539;28;20024;-65
2022/09/18 07:21:18;;;;;;;1.15;0.65;;;16.00;88.00;;;;;;5061484;28;20024;-65
2022/09/18 07:23:44;;;;;;;6.00;0.90;;;16.00;88.00;;;;;;5049567;28;20457;-65
2022/09/18 07:26:09;;;;;;;0.98;0.60;;;16.00;87.90;;;;;;5063869;28;20036;-65
2022/09/18 07:28:35;;;;;;;1.52;0.60;;;16.00;87.90;;;;;;5077990;28;20054;-65
2022/09/18 07:31:05;;;;;;;3.20;0.75;;;16.00;87.90;;;;;;5060835;28;20477;-65
2022/09/18 07:33:31;;;;;;;1.98;0.75;;;16.00;87.90;;;;;;5062522;28;20132;-65
2022/09/18 07:36:02;;;;;;;2.63;0.70;;;16.00;88.00;;;;;;5057967;28;20062;-65
2022/09/18 07:38:28;;;;;;;5.32;0.70;;;16.00;88.00;;;;;;5066563;28;20425;-65
2022/09/18 07:40:54;;;;;;;2.22;1.20;;;16.00;87.90;;;;;;5062167;28;20016;-64
2022/09/18 07:43:22;;;;;;;5.93;1.35;;;16.00;87.90;;;;;;5062129;28;20017;-65
2022/09/18 07:45:48;;;;;;;2.50;1.33;;;16.00;87.90;;;;;;5058781;28;20067;-65
2022/09/18 07:48:15;;;;;;;1.05;0.85;;;16.00;88.00;;;;;;5063597;28;20055;-65
2022/09/18 07:50:41;;;;;;;3.45;0.80;;;16.00;88.00;;;;;;5059709;28;20027;-66
2022/09/18 07:53:07;;;;;;;2.20;0.82;;;16.00;88.00;;;;;;5073609;28;20493;-66
2022/09/18 08:02:11;;;;;;;1.92;1.17;;;16.00;87.90;;;;;;5015400;28;20041;-66
2022/09/18 08:04:37;;;;;;;10.88;1.10;;;16.00;87.90;;;;;;5017571;28;20276;-65
2022/09/18 08:07:03;;;;;;;0.80;0.70;;;16.10;88.00;;;;;;5006219;28;20148;-66
2022/09/18 08:09:29;;;;;;;4.05;1.13;;;16.00;87.90;;;;;;5015729;28;20585;-66
2022/09/18 08:11:55;;;;;;;2.40;1.70;;;16.00;87.90;;;;;;5016013;28;20036;-65
2022/09/18 08:14:20;;;;;;;2.33;1.35;;;16.10;88.00;;;;;;5006791;28;20025;-65
2022/09/18 08:16:46;;;;;;;1.05;0.95;;;16.10;88.10;;;;;;5010700;28;20034;-66
2022/09/18 08:19:12;;;;;;;1.50;1.00;;;16.10;88.00;;;;;;5019371;28;20038;-66
2022/09/18 08:21:38;;;;;;;1.98;1.13;;;16.10;88.00;;;;;;5008666;28;20033;-64
2022/09/18 08:24:03;;;;;;;1.73;0.80;;;16.10;88.10;;;;;;5011299;28;20412;-66
2022/09/18 08:26:30;;;;;;;1.92;1.02;;;16.10;88.10;;;;;;5026716;28;20112;-66
2022/09/18 08:28:55;;;;;;;1.42;0.70;;;16.10;88.10;;;;;;5042907;28;20040;-65
2022/09/18 08:31:21;;;;;;;2.97;0.93;;;16.00;88.00;;;;;;5066896;28;20040;-65
2022/09/18 08:33:54;;;;;;;1.17;1.10;;;16.10;88.00;;;;;;5061314;28;20495;-65
2022/09/18 08:36:20;;;;;;;1.42;1.00;;;16.10;88.00;;;;;;5067325;28;20601;-66
2022/09/18 08:38:45;;;;;;;5.15;1.15;;;16.10;88.10;;;;;;5070756;28;20021;-66
2022/09/18 08:41:14;;;;;;;1.95;0.75;;;16.10;88.00;;;;;;5061833;28;20024;-66
2022/09/18 08:43:48;;;;;;;4.78;0.85;;;16.10;88.00;;;;;;5070661;28;20020;-66
2022/09/18 08:46:20;;;;;;;3.00;0.88;;;16.10;88.00;;;;;;5058510;28;20036;-66
2022/09/18 08:49:06;;;;;;;2.28;0.90;;;16.10;88.00;;;;;;5065929;28;20032;-65
2022/09/18 08:51:41;;;;;;;3.30;1.00;;;16.20;88.10;;;;;;5062258;28;20135;-66
2022/09/18 08:54:38;;;;;;;4.80;0.70;;;16.10;88.10;;;;;;5065698;28;20082;-66
2022/09/18 08:57:13;;;;;;;2.20;0.82;;;16.10;88.10;;;;;;5057049;28;20032;-65
2022/09/18 08:59:47;;;;;;;4.68;0.95;;;16.10;88.00;;;;;;5056612;28;20537;-66
2022/09/18 09:02:29;;;;;;;0.80;0.70;;;16.10;88.00;;;;;;5060268;28;20497;-66
2022/09/18 09:05:01;;;;;;;1.15;0.73;;;16.20;88.10;;;;;;5056221;28;20028;-66
2022/09/18 09:07:45;;;;;;;1.30;0.85;;;16.20;88.10;;;;;;5072214;28;20071;-66
2022/09/18 09:16:49;;;;;;;2.88;0.90;;;16.20;88.00;;;;;;5019858;28;20164;-65
2022/09/18 09:19:42;;;;;;;1.70;0.77;;;16.20;88.00;;;;;;5019020;28;20041;-65
2022/09/18 11:03:36;;;;;;;0.88;0.70;;;16.60;88.00;;;;;;4921241;29;20039;-68
2022/09/18 11:06:07;;;;;;;1.15;0.73;;;16.60;88.00;;;;;;4922373;29;20051;-67
2022/09/18 11:08:36;;;;;;;1.25;0.68;;;16.60;88.00;;;;;;4931268;29;20090;-67
2022/09/18 11:11:19;;;;;;;1.77;0.80;;;16.70;88.00;;;;;;4929851;29;20127;-67
2022/09/18 11:14:00;;;;;;;3.00;1.10;;;16.70;88.00;;;;;;4931099;29;20560;-67
2022/09/18 11:20:05;;;;;;;2.88;0.90;;;16.70;88.00;;;;;;4933135;29;20071;-67
2022/09/18 11:22:43;;;;;;;2.30;0.90;;;16.70;88.00;;;;;;4919430;29;20183;-67
2022/09/18 11:25:23;;;;;;;3.13;1.15;;;16.70;87.90;;;;;;4926736;29;20482;-67
2022/09/18 11:27:50;;;;;;;;;;;16.70;88.00;;;;;;4976035;28;20037;-67
2022/09/18 11:30:27;;;;;;;2.40;0.98;;;16.70;87.90;;;;;;5050026;28;19905;-67
2022/09/18 11:33:03;;;;;;;5.72;1.17;;;16.70;88.00;;;;;;5042054;28;20073;-67
2022/09/18 11:35:31;;;;;;;1.83;0.77;;;16.80;88.00;;;;;;5030483;28;20021;-67
2022/09/18 11:37:59;;;;;;;1.85;0.70;;;16.80;88.00;;;;;;5020098;28;20037;-68
2022/09/18 11:40:43;;;;;;;7.82;1.10;;;16.80;88.00;;;;;;5023812;28;20028;-67
2022/09/18 11:43:28;;;;;;;2.63;0.70;;;16.80;88.00;;;;;;5030620;28;20394;-67
2022/09/18 11:46:01;;;;;;;2.38;0.63;;;16.80;88.00;;;;;;5027679;28;20025;-67
2022/09/18 11:48:34;;;;;;;1.75;0.77;;;16.80;88.00;;;;;;5021212;28;20021;-67
2022/09/18 11:51:14;;;;;;;2.55;0.60;;;16.80;88.00;;;;;;5020081;28;20029;-68
2022/09/18 11:53:47;;;;;;;2.67;0.82;;;16.80;88.00;;;;;;5041696;28;20056;-67
2022/09/18 12:40:44;;;;;;;3.63;0.80;;;16.90;87.60;;;;;;4977418;28;20514;-67
2022/09/18 12:47:09;;;;;;;8.55;1.08;;;16.90;87.70;;;;;;4991342;28;20045;-67
2022/09/18 12:50:02;;;;;;;8.13;1.27;;;16.90;87.60;;;;;;4986058;28;20034;-67
2022/09/18 12:52:58;;;;;;;0.60;0.50;;;16.90;87.60;;;;;;5045904;28;20048;-67
2022/09/18 12:56:01;;;;;;;2.03;0.70;;;16.90;87.50;;;;;;5039494;28;20168;-67
2022/09/18 12:58:35;;;;;;;4.90;0.98;;;16.90;87.50;;;;;;5045716;28;20430;-67
2022/09/18 13:01:10;;;;;;;1.55;0.77;;;16.90;87.50;;;;;;5036190;28;20029;-67
2022/09/18 13:03:40;;;;;;;0.95;0.63;;;16.90;87.50;;;;;;5041427;28;20033;-67
2022/09/18 13:06:15;;;;;;;4.13;0.90;;;16.90;87.40;;;;;;5030728;28;20128;-67
2022/09/18 13:08:59;;;;;;;2.85;0.80;;;16.90;87.40;;;;;;5024365;28;20079;-67
2022/09/18 13:11:50;;;;;;;2.58;0.80;;;16.90;87.40;;;;;;5022689;28;20101;-67
2022/09/18 13:14:25;;;;;;;1.38;0.80;;;16.90;87.30;;;;;;5025641;28;20029;-67
2022/09/18 13:16:52;;;;;;;2.95;0.70;;;16.90;87.20;;;;;;5043633;28;20021;-67
2022/09/18 13:19:33;;;;;;;5.05;0.80;;;16.90;87.20;;;;;;5043410;28;20027;-67
2022/09/18 13:22:04;;;;;;;1.95;0.80;;;16.90;87.20;;;;;;5029732;28;20118;-67
2022/09/18 13:24:32;;;;;;;0.68;0.68;;;16.90;87.10;;;;;;5043246;28;20035;-67
2022/09/18 13:27:20;;;;;;;3.92;0.90;;;16.90;87.10;;;;;;5036001;28;20442;-67
2022/09/18 13:29:52;;;;;;;1.23;0.75;;;16.90;87.00;;;;;;5045445;28;20474;-67
2022/09/18 13:32:29;;;;;;;2.53;0.90;;;16.90;87.00;;;;;;5043316;28;20025;-67
2022/09/18 13:34:57;;;;;;;2.33;0.90;;;16.80;86.90;;;;;;5038615;28;20025;-67
2022/09/18 13:37:25;;;;;;;2.08;0.70;;;16.90;87.00;;;;;;5041372;28;20049;-67
2022/09/18 14:10:28;;;;;;;;;;;16.80;86.50;;;;;;4963051;28;20050;-67
2022/09/18 14:13:35;;;;;;;1.60;0.70;;;16.80;86.60;;;;;;4960140;28;19911;-67
2022/09/18 14:16:03;;;;;;;1.85;0.77;;;16.80;86.60;;;;;;4964448;28;20130;-67
2022/09/18 14:18:38;;;;;;;2.97;0.90;;;16.80;86.50;;;;;;4967111;28;20129;-67
2022/09/18 14:21:25;;;;;;;2.15;1.13;;;16.80;86.50;;;;;;4959048;28;20035;-67
2022/09/18 14:31:22;;;;;;;2.38;0.70;;;16.80;86.30;;;;;;4963366;28;20464;-67
2022/09/18 14:33:48;;;;;;;1.80;0.90;;;16.80;86.40;;;;;;4966103;28;20039;-68
2022/09/18 14:36:13;;;;;;;1.48;0.70;;;16.80;86.30;;;;;;4958029;28;20118;-67
2022/09/18 14:38:40;;;;;;;6.88;2.08;;;16.80;86.20;;;;;;4949409;29;20149;-67
2022/09/18 14:41:25;;;;;;;2.67;0.88;;;16.80;86.20;;;;;;4956874;28;20046;-66
2022/09/18 14:43:53;;;;;;;1.60;0.80;;;16.80;86.20;;;;;;4962473;28;20300;-67
2022/09/18 14:46:21;;;;;;;2.05;1.00;;;16.80;86.20;;;;;;4980890;28;20127;-67
2022/09/18 14:48:47;;;;;;;4.20;0.88;;;16.80;86.20;;;;;;5047452;28;20022;-67
2022/09/18 14:51:20;;;;;;;0.70;0.70;;;16.80;86.10;;;;;;5046901;28;20025;-67
2022/09/18 15:17:38;;;;;;;5.57;1.35;;;16.70;85.80;;;;;;5040355;28;20036;-67
2022/09/18 15:20:15;;;;;;;1.73;1.10;;;16.70;85.80;;;;;;5044255;28;20025;-66
2022/09/18 15:39:34;;;;;;;5.10;1.30;;;16.70;85.80;;;;;;5041997;28;20406;-66
2022/09/18 15:42:19;;;;;;;3.80;1.00;;;16.70;85.80;;;;;;5038936;28;20029;-67
2022/09/18 15:45:08;;;;;;;1.83;1.27;;;16.60;85.70;;;;;;5000610;28;20036;-66
2022/09/18 15:47:38;;;;;;;2.25;1.20;;;16.60;85.80;;;;;;5040972;28;20037;-66
2022/09/18 15:50:13;;;;;;;1.88;1.02;;;16.60;85.70;;;;;;5037422;28;20029;-66
2022/09/18 15:53:01;;;;;;;5.00;1.35;;;16.60;85.70;;;;;;5038846;28;20029;-67
2022/09/18 15:55:30;;;;;;;2.58;1.30;;;16.60;85.70;;;;;;5041759;28;20083;-66
2022/09/18 15:58:02;;;;;;;3.83;1.40;;;16.60;85.70;;;;;;5035072;28;20490;-67
2022/09/18 16:00:31;;;;;;;2.58;0.73;;;16.60;85.70;;;;;;5041696;28;20098;-66
2022/09/18 16:03:05;;;;;;;1.08;0.70;;;16.60;85.70;;;;;;5037919;28;20104;-67
2022/09/18 16:05:34;;;;;;;2.60;0.88;;;16.60;85.70;;;;;;5028157;28;20485;-67
2022/09/18 16:08:01;;;;;;;3.20;1.10;;;16.60;85.70;;;;;;5040957;28;20043;-67
2022/09/18 16:10:32;;;;;;;1.88;0.95;;;16.60;85.70;;;;;;5031869;28;20031;-66
2022/09/18 16:12:59;;;;;;;5.18;1.20;;;16.60;85.70;;;;;;5036569;28;20021;-66
2022/09/18 16:15:24;;;;;;;7.18;2.20;;;16.60;85.70;;;;;;5037980;28;20482;-66
2022/09/18 16:17:52;;;;;;;2.42;1.05;;;16.60;85.70;;;;;;5038738;28;20033;-67
2022/09/18 16:20:24;;;;;;;2.72;1.10;;;16.60;85.70;;;;;;5041325;28;20108;-66
2022/09/18 16:22:53;;;;;;;3.63;1.17;;;16.60;85.70;;;;;;5039753;28;20025;-66
2022/09/18 16:25:28;;;;;;;4.07;1.10;;;16.60;85.70;;;;;;5035917;28;20190;-66
2022/09/18 16:27:55;;;;;;;1.92;1.42;;;16.60;85.70;;;;;;5044308;28;20079;-66
2022/09/18 16:30:22;;;;;;;1.98;1.08;;;16.50;85.70;;;;;;5026760;28;20032;-66
2022/09/18 16:32:48;;;;;;;6.47;1.02;;;16.50;85.70;;;;;;5030012;28;20485;-66
2022/09/18 16:35:15;;;;;;;1.10;1.00;;;16.50;85.70;;;;;;5038207;28;20047;-67
2022/09/18 16:38:15;;;;;;;3.40;1.35;;;16.50;85.60;;;;;;5030207;28;20029;-66
2022/09/18 16:40:42;;;;;;;3.03;1.13;;;16.50;85.70;;;;;;5022699;28;20124;-67
2022/09/18 16:43:09;;;;;;;2.85;1.30;;;16.50;86.40;;;;;;5036374;28;20076;-66
2022/09/18 16:45:35;;;;;;;1.58;1.40;;;16.50;85.70;;;;;;5037652;28;20099;-67
2022/09/18 16:48:02;;;;;;;5.10;1.67;;;16.50;85.70;;;;;;5041097;28;20021;-66
2022/09/18 16:50:28;;;;;;;4.13;1.70;;;16.50;85.70;;;;;;5044854;28;20021;-67
2022/09/18 16:52:53;;;;;;;10.32;2.47;;;16.50;85.70;;;;;;5043102;28;20025;-66
2022/09/18 16:55:21;;;;;;;7.40;3.38;;;16.50;85.70;;;;;;5041399;28;20099;-66
2022/09/18 16:57:47;;;;;;;5.10;1.65;;;16.50;85.70;;;;;;5046748;28;20096;-67
2022/09/18 17:00:13;;;;;;;4.50;1.65;;;16.50;85.70;;;;;;5044840;28;20028;-66
2022/09/18 17:02:38;;;;;;;5.13;2.95;;;16.50;85.70;;;;;;5043208;28;20021;-66
2022/09/18 17:05:04;;;;;;;5.28;3.40;;;16.50;85.70;;;;;;5041539;28;20089;-67
2022/09/18 18:16:22;;;;;;;3.13;1.38;;;16.30;85.60;;;;;;4951660;29;20176;-66
2022/09/18 18:18:58;;;;;;;2.85;1.45;;;16.30;85.70;;;;;;4949822;29;20051;-67
2022/09/18 18:21:26;;;;;;;2.72;1.30;;;16.30;85.70;;;;;;4944727;29;20024;-67
2022/09/18 18:23:59;;;;;;;2.63;1.23;;;16.30;85.70;;;;;;4948914;29;20133;-67
2022/09/18 18:26:29;;;;;;;2.35;1.25;;;16.30;85.70;;;;;;4949932;29;20047;-66